Terminal Aerodrome Forecast
Issued by NWS

Home | Current Version | Previous Version | Text Only | Print | Product List | Glossary Off
Versions: 1 2 3 4 5 6 7 8 9 10 11 12 13 14 15 16 17 18 19 20 21 22 23 24 25 26 27 28 29 30 31 32 33 34

000
FTUS45 KGGW 292300
TAFOLF
TAF
KOLF 292330Z 3000/3024 11012KT 6SM -SHRA BR BKN010
     FM300200 12006KT P6SM OVC040
     FM300500 10008KT 5SM -SHRA BR OVC025
     FM301400 VRB06KT P6SM OVC015=

USA.gov is the U.S. government's official web portal to all federal, state and local government web resources and services.